sensor_id;sensor_type;location;lat;lon;timestamp;P1;durP1;ratioP1;P2;durP2;ratioP2
49876;SDS011;35771;48.978;9.294;2023-02-22T00:00:17;3.38;;;1.98;;
49876;SDS011;35771;48.978;9.294;2023-02-22T00:02:48;4.10;;;2.28;;
49876;SDS011;35771;48.978;9.294;2023-02-22T00:05:15;4.43;;;2.15;;
49876;SDS011;35771;48.978;9.294;2023-02-22T00:07:44;3.83;;;2.00;;
49876;SDS011;35771;48.978;9.294;2023-02-22T00:10:12;5.80;;;2.20;;
49876;SDS011;35771;48.978;9.294;2023-02-22T00:12:41;2.53;;;1.90;;
49876;SDS011;35771;48.978;9.294;2023-02-22T00:15:08;4.13;;;2.43;;
49876;SDS011;35771;48.978;9.294;2023-02-22T00:17:38;4.97;;;1.67;;
49876;SDS011;35771;48.978;9.294;2023-02-22T00:20:05;9.05;;;2.30;;
49876;SDS011;35771;48.978;9.294;2023-02-22T00:22:32;3.22;;;1.77;;
49876;SDS011;35771;48.978;9.294;2023-02-22T00:24:59;5.55;;;1.77;;
49876;SDS011;35771;48.978;9.294;2023-02-22T00:27:25;4.18;;;2.10;;
49876;SDS011;35771;48.978;9.294;2023-02-22T00:29:53;6.57;;;3.60;;
49876;SDS011;35771;48.978;9.294;2023-02-22T00:32:20;3.10;;;1.80;;
49876;SDS011;35771;48.978;9.294;2023-02-22T00:34:49;6.40;;;2.00;;
49876;SDS011;35771;48.978;9.294;2023-02-22T00:37:17;8.00;;;2.42;;
49876;SDS011;35771;48.978;9.294;2023-02-22T00:39:45;3.20;;;1.67;;
49876;SDS011;35771;48.978;9.294;2023-02-22T00:42:12;6.00;;;2.40;;
49876;SDS011;35771;48.978;9.294;2023-02-22T00:44:39;2.67;;;2.00;;
49876;SDS011;35771;48.978;9.294;2023-02-22T00:47:07;5.07;;;2.25;;
49876;SDS011;35771;48.978;9.294;2023-02-22T00:49:33;3.30;;;1.85;;
49876;SDS011;35771;48.978;9.294;2023-02-22T00:52:00;4.40;;;1.92;;
49876;SDS011;35771;48.978;9.294;2023-02-22T00:54:27;3.80;;;1.98;;
49876;SDS011;35771;48.978;9.294;2023-02-22T00:56:53;5.68;;;2.10;;
49876;SDS011;35771;48.978;9.294;2023-02-22T00:59:20;2.25;;;1.83;;
49876;SDS011;35771;48.978;9.294;2023-02-22T01:01:46;3.15;;;2.15;;
49876;SDS011;35771;48.978;9.294;2023-02-22T01:04:14;3.88;;;2.00;;
49876;SDS011;35771;48.978;9.294;2023-02-22T01:06:42;2.55;;;2.15;;
49876;SDS011;35771;48.978;9.294;2023-02-22T01:09:08;3.90;;;2.50;;
49876;SDS011;35771;48.978;9.294;2023-02-22T01:11:35;4.80;;;2.92;;
49876;SDS011;35771;48.978;9.294;2023-02-22T01:14:04;8.75;;;3.35;;
49876;SDS011;35771;48.978;9.294;2023-02-22T01:16:33;4.68;;;2.70;;
49876;SDS011;35771;48.978;9.294;2023-02-22T01:19:00;5.65;;;2.67;;
49876;SDS011;35771;48.978;9.294;2023-02-22T01:21:28;4.93;;;2.47;;
49876;SDS011;35771;48.978;9.294;2023-02-22T01:23:55;4.65;;;2.60;;
49876;SDS011;35771;48.978;9.294;2023-02-22T01:26:21;4.05;;;2.40;;
49876;SDS011;35771;48.978;9.294;2023-02-22T01:28:48;4.78;;;2.72;;
49876;SDS011;35771;48.978;9.294;2023-02-22T01:31:14;5.28;;;2.97;;
49876;SDS011;35771;48.978;9.294;2023-02-22T01:33:41;6.70;;;3.08;;
49876;SDS011;35771;48.978;9.294;2023-02-22T01:36:08;6.03;;;3.03;;
49876;SDS011;35771;48.978;9.294;2023-02-22T01:38:37;5.53;;;3.05;;
49876;SDS011;35771;48.978;9.294;2023-02-22T01:41:04;9.80;;;3.20;;
49876;SDS011;35771;48.978;9.294;2023-02-22T01:43:31;7.50;;;3.78;;
49876;SDS011;35771;48.978;9.294;2023-02-22T01:45:58;7.75;;;4.43;;
49876;SDS011;35771;48.978;9.294;2023-02-22T01:48:28;13.20;;;4.32;;
49876;SDS011;35771;48.978;9.294;2023-02-22T01:51:01;7.03;;;3.88;;
49876;SDS011;35771;48.978;9.294;2023-02-22T01:53:34;5.70;;;3.33;;
49876;SDS011;35771;48.978;9.294;2023-02-22T01:56:06;6.05;;;3.40;;
49876;SDS011;35771;48.978;9.294;2023-02-22T01:58:34;8.23;;;4.72;;
49876;SDS011;35771;48.978;9.294;2023-02-22T02:01:04;9.50;;;4.45;;
49876;SDS011;35771;48.978;9.294;2023-02-22T02:03:32;7.10;;;4.25;;
49876;SDS011;35771;48.978;9.294;2023-02-22T02:06:02;8.25;;;3.88;;
49876;SDS011;35771;48.978;9.294;2023-02-22T02:08:34;8.88;;;4.82;;
49876;SDS011;35771;48.978;9.294;2023-02-22T02:11:07;8.18;;;5.00;;
49876;SDS011;35771;48.978;9.294;2023-02-22T02:13:35;9.10;;;4.57;;
49876;SDS011;35771;48.978;9.294;2023-02-22T02:16:02;7.30;;;4.07;;
49876;SDS011;35771;48.978;9.294;2023-02-22T02:18:28;7.90;;;4.40;;
49876;SDS011;35771;48.978;9.294;2023-02-22T02:21:12;8.52;;;4.30;;
49876;SDS011;35771;48.978;9.294;2023-02-22T02:24:11;10.85;;;5.10;;
49876;SDS011;35771;48.978;9.294;2023-02-22T02:27:15;13.70;;;4.63;;
49876;SDS011;35771;48.978;9.294;2023-02-22T02:32:54;8.43;;;4.43;;
49876;SDS011;35771;48.978;9.294;2023-02-22T02:35:31;7.95;;;4.90;;
49876;SDS011;35771;48.978;9.294;2023-02-22T02:38:15;9.68;;;4.38;;
49876;SDS011;35771;48.978;9.294;2023-02-22T02:40:50;7.25;;;4.68;;
49876;SDS011;35771;48.978;9.294;2023-02-22T02:43:25;7.53;;;4.20;;
49876;SDS011;35771;48.978;9.294;2023-02-22T02:45:58;12.38;;;3.97;;
49876;SDS011;35771;48.978;9.294;2023-02-22T02:48:30;12.90;;;4.28;;
49876;SDS011;35771;48.978;9.294;2023-02-22T02:50:59;9.95;;;4.78;;
49876;SDS011;35771;48.978;9.294;2023-02-22T02:53:30;8.45;;;3.97;;
49876;SDS011;35771;48.978;9.294;2023-02-22T02:55:59;6.15;;;3.67;;
49876;SDS011;35771;48.978;9.294;2023-02-22T02:58:26;9.70;;;3.55;;
49876;SDS011;35771;48.978;9.294;2023-02-22T03:00:53;7.30;;;3.42;;
49876;SDS011;35771;48.978;9.294;2023-02-22T03:03:26;7.03;;;3.30;;
49876;SDS011;35771;48.978;9.294;2023-02-22T03:06:24;4.30;;;3.03;;
49876;SDS011;35771;48.978;9.294;2023-02-22T03:09:06;5.88;;;3.65;;
49876;SDS011;35771;48.978;9.294;2023-02-22T03:11:40;5.65;;;3.67;;
49876;SDS011;35771;48.978;9.294;2023-02-22T03:14:19;7.35;;;3.50;;
49876;SDS011;35771;48.978;9.294;2023-02-22T03:16:51;5.25;;;3.10;;
49876;SDS011;35771;48.978;9.294;2023-02-22T03:19:26;6.82;;;3.65;;
49876;SDS011;35771;48.978;9.294;2023-02-22T03:21:59;10.20;;;4.47;;
49876;SDS011;35771;48.978;9.294;2023-02-22T03:24:34;6.20;;;3.28;;
49876;SDS011;35771;48.978;9.294;2023-02-22T03:27:08;11.60;;;3.47;;
49876;SDS011;35771;48.978;9.294;2023-02-22T03:29:38;3.90;;;2.47;;
49876;SDS011;35771;48.978;9.294;2023-02-22T03:32:08;5.60;;;3.63;;
49876;SDS011;35771;48.978;9.294;2023-02-22T03:34:42;10.38;;;4.25;;
49876;SDS011;35771;48.978;9.294;2023-02-22T03:37:13;7.70;;;3.55;;
49876;SDS011;35771;48.978;9.294;2023-02-22T03:39:43;9.30;;;3.65;;
49876;SDS011;35771;48.978;9.294;2023-02-22T03:42:12;5.10;;;2.97;;
49876;SDS011;35771;48.978;9.294;2023-02-22T03:44:43;13.88;;;3.67;;
49876;SDS011;35771;48.978;9.294;2023-02-22T03:47:13;6.55;;;3.80;;
49876;SDS011;35771;48.978;9.294;2023-02-22T03:49:49;7.10;;;3.70;;
49876;SDS011;35771;48.978;9.294;2023-02-22T03:52:18;15.20;;;4.03;;
49876;SDS011;35771;48.978;9.294;2023-02-22T03:54:47;7.65;;;4.25;;
49876;SDS011;35771;48.978;9.294;2023-02-22T03:57:19;5.88;;;3.75;;
49876;SDS011;35771;48.978;9.294;2023-02-22T03:59:50;7.97;;;4.18;;
49876;SDS011;35771;48.978;9.294;2023-02-22T04:02:17;6.88;;;4.05;;
49876;SDS011;35771;48.978;9.294;2023-02-22T04:04:45;9.65;;;4.45;;
49876;SDS011;35771;48.978;9.294;2023-02-22T04:07:12;7.55;;;3.92;;
49876;SDS011;35771;48.978;9.294;2023-02-22T04:09:39;9.95;;;4.03;;
49876;SDS011;35771;48.978;9.294;2023-02-22T04:12:05;7.10;;;3.72;;
49876;SDS011;35771;48.978;9.294;2023-02-22T04:14:32;6.38;;;3.53;;
49876;SDS011;35771;48.978;9.294;2023-02-22T04:16:59;9.57;;;3.53;;
49876;SDS011;35771;48.978;9.294;2023-02-22T04:19:26;7.63;;;4.32;;
49876;SDS011;35771;48.978;9.294;2023-02-22T04:21:53;6.00;;;4.03;;
49876;SDS011;35771;48.978;9.294;2023-02-22T04:24:20;6.10;;;3.50;;
49876;SDS011;35771;48.978;9.294;2023-02-22T04:26:47;7.00;;;4.28;;
49876;SDS011;35771;48.978;9.294;2023-02-22T04:29:13;5.57;;;3.70;;
49876;SDS011;35771;48.978;9.294;2023-02-22T04:31:40;8.45;;;3.88;;
49876;SDS011;35771;48.978;9.294;2023-02-22T04:34:07;7.65;;;4.05;;
49876;SDS011;35771;48.978;9.294;2023-02-22T04:36:33;8.57;;;3.40;;
49876;SDS011;35771;48.978;9.294;2023-02-22T04:39:01;6.88;;;3.67;;
49876;SDS011;35771;48.978;9.294;2023-02-22T04:41:29;7.33;;;3.67;;
49876;SDS011;35771;48.978;9.294;2023-02-22T04:43:56;7.00;;;4.20;;
49876;SDS011;35771;48.978;9.294;2023-02-22T04:46:22;6.38;;;4.00;;
49876;SDS011;35771;48.978;9.294;2023-02-22T04:48:49;8.57;;;5.25;;
49876;SDS011;35771;48.978;9.294;2023-02-22T04:51:16;8.00;;;4.55;;
49876;SDS011;35771;48.978;9.294;2023-02-22T04:53:43;6.82;;;3.78;;
49876;SDS011;35771;48.978;9.294;2023-02-22T04:56:11;8.70;;;4.68;;
49876;SDS011;35771;48.978;9.294;2023-02-22T04:58:38;7.22;;;4.47;;
49876;SDS011;35771;48.978;9.294;2023-02-22T05:01:04;11.20;;;5.78;;
49876;SDS011;35771;48.978;9.294;2023-02-22T05:03:32;11.13;;;5.13;;
49876;SDS011;35771;48.978;9.294;2023-02-22T05:05:58;8.40;;;4.20;;
49876;SDS011;35771;48.978;9.294;2023-02-22T05:08:25;8.25;;;4.32;;
49876;SDS011;35771;48.978;9.294;2023-02-22T05:10:51;8.88;;;4.57;;
49876;SDS011;35771;48.978;9.294;2023-02-22T05:13:20;8.75;;;4.57;;
49876;SDS011;35771;48.978;9.294;2023-02-22T05:15:46;6.38;;;3.65;;
49876;SDS011;35771;48.978;9.294;2023-02-22T05:18:13;11.75;;;5.00;;
49876;SDS011;35771;48.978;9.294;2023-02-22T05:20:39;12.18;;;4.53;;
49876;SDS011;35771;48.978;9.294;2023-02-22T05:23:06;7.57;;;4.88;;
49876;SDS011;35771;48.978;9.294;2023-02-22T05:25:32;9.82;;;4.72;;
49876;SDS011;35771;48.978;9.294;2023-02-22T05:28:00;9.07;;;4.82;;
49876;SDS011;35771;48.978;9.294;2023-02-22T05:30:30;11.45;;;4.97;;
49876;SDS011;35771;48.978;9.294;2023-02-22T05:32:58;7.50;;;4.38;;
49876;SDS011;35771;48.978;9.294;2023-02-22T05:35:25;7.97;;;4.68;;
49876;SDS011;35771;48.978;9.294;2023-02-22T05:37:52;11.32;;;4.80;;
49876;SDS011;35771;48.978;9.294;2023-02-22T05:40:20;8.07;;;4.93;;
49876;SDS011;35771;48.978;9.294;2023-02-22T05:42:48;10.32;;;5.03;;
49876;SDS011;35771;48.978;9.294;2023-02-22T05:45:16;11.85;;;5.40;;
49876;SDS011;35771;48.978;9.294;2023-02-22T05:47:45;9.82;;;4.80;;
49876;SDS011;35771;48.978;9.294;2023-02-22T05:50:13;8.15;;;4.63;;
49876;SDS011;35771;48.978;9.294;2023-02-22T05:52:40;9.25;;;4.18;;
49876;SDS011;35771;48.978;9.294;2023-02-22T05:55:08;9.60;;;4.47;;
49876;SDS011;35771;48.978;9.294;2023-02-22T05:57:36;7.93;;;4.65;;
49876;SDS011;35771;48.978;9.294;2023-02-22T06:00:03;8.80;;;4.95;;
49876;SDS011;35771;48.978;9.294;2023-02-22T06:02:31;7.65;;;4.80;;
49876;SDS011;35771;48.978;9.294;2023-02-22T06:04:59;9.32;;;4.88;;
49876;SDS011;35771;48.978;9.294;2023-02-22T06:07:26;17.33;;;8.52;;
49876;SDS011;35771;48.978;9.294;2023-02-22T06:09:52;10.13;;;5.68;;
49876;SDS011;35771;48.978;9.294;2023-02-22T06:12:20;9.57;;;5.28;;
49876;SDS011;35771;48.978;9.294;2023-02-22T06:14:46;9.52;;;4.72;;
49876;SDS011;35771;48.978;9.294;2023-02-22T06:17:16;13.90;;;5.63;;
49876;SDS011;35771;48.978;9.294;2023-02-22T06:19:43;8.75;;;4.70;;
49876;SDS011;35771;48.978;9.294;2023-02-22T06:22:13;15.05;;;5.75;;
49876;SDS011;35771;48.978;9.294;2023-02-22T06:24:41;7.70;;;4.70;;
49876;SDS011;35771;48.978;9.294;2023-02-22T06:27:08;11.25;;;4.97;;
49876;SDS011;35771;48.978;9.294;2023-02-22T06:29:34;10.38;;;5.40;;
49876;SDS011;35771;48.978;9.294;2023-02-22T06:32:01;9.75;;;4.47;;
49876;SDS011;35771;48.978;9.294;2023-02-22T06:34:27;10.35;;;4.88;;
49876;SDS011;35771;48.978;9.294;2023-02-22T06:36:54;9.30;;;5.20;;
49876;SDS011;35771;48.978;9.294;2023-02-22T06:39:22;12.40;;;5.03;;
49876;SDS011;35771;48.978;9.294;2023-02-22T06:41:49;8.57;;;4.63;;
49876;SDS011;35771;48.978;9.294;2023-02-22T06:44:16;9.80;;;4.80;;
49876;SDS011;35771;48.978;9.294;2023-02-22T06:46:46;14.40;;;5.47;;
49876;SDS011;35771;48.978;9.294;2023-02-22T06:49:14;9.88;;;4.45;;
49876;SDS011;35771;48.978;9.294;2023-02-22T06:51:41;8.02;;;5.22;;
49876;SDS011;35771;48.978;9.294;2023-02-22T06:54:08;11.13;;;5.10;;
49876;SDS011;35771;48.978;9.294;2023-02-22T06:56:37;8.63;;;4.88;;
49876;SDS011;35771;48.978;9.294;2023-02-22T06:59:03;9.50;;;4.95;;
49876;SDS011;35771;48.978;9.294;2023-02-22T07:01:30;10.05;;;4.82;;
49876;SDS011;35771;48.978;9.294;2023-02-22T07:03:56;9.35;;;4.43;;
49876;SDS011;35771;48.978;9.294;2023-02-22T07:06:23;11.02;;;5.35;;
49876;SDS011;35771;48.978;9.294;2023-02-22T07:08:49;8.60;;;4.80;;
49876;SDS011;35771;48.978;9.294;2023-02-22T07:11:16;11.52;;;5.15;;
49876;SDS011;35771;48.978;9.294;2023-02-22T07:13:44;11.45;;;5.45;;
49876;SDS011;35771;48.978;9.294;2023-02-22T07:16:11;10.00;;;5.68;;
49876;SDS011;35771;48.978;9.294;2023-02-22T07:18:37;11.52;;;4.65;;
49876;SDS011;35771;48.978;9.294;2023-02-22T07:21:04;8.48;;;5.00;;
49876;SDS011;35771;48.978;9.294;2023-02-22T07:23:31;11.20;;;5.15;;
49876;SDS011;35771;48.978;9.294;2023-02-22T07:25:58;14.60;;;4.93;;
49876;SDS011;35771;48.978;9.294;2023-02-22T07:28:25;10.95;;;5.10;;
49876;SDS011;35771;48.978;9.294;2023-02-22T07:30:53;8.73;;;5.18;;
49876;SDS011;35771;48.978;9.294;2023-02-22T07:33:20;9.02;;;5.45;;
49876;SDS011;35771;48.978;9.294;2023-02-22T07:35:47;15.20;;;7.78;;
49876;SDS011;35771;48.978;9.294;2023-02-22T07:38:15;20.23;;;8.40;;
49876;SDS011;35771;48.978;9.294;2023-02-22T07:40:44;15.10;;;7.78;;
49876;SDS011;35771;48.978;9.294;2023-02-22T07:43:15;12.65;;;7.20;;
49876;SDS011;35771;48.978;9.294;2023-02-22T07:45:43;17.48;;;7.35;;
49876;SDS011;35771;48.978;9.294;2023-02-22T07:48:12;11.02;;;6.72;;
49876;SDS011;35771;48.978;9.294;2023-02-22T07:50:40;14.07;;;7.60;;
49876;SDS011;35771;48.978;9.294;2023-02-22T07:53:09;16.23;;;8.30;;
49876;SDS011;35771;48.978;9.294;2023-02-22T07:55:40;14.38;;;7.30;;
49876;SDS011;35771;48.978;9.294;2023-02-22T07:58:07;12.82;;;7.28;;
49876;SDS011;35771;48.978;9.294;2023-02-22T08:00:35;22.67;;;7.28;;
49876;SDS011;35771;48.978;9.294;2023-02-22T08:03:06;11.65;;;7.85;;
49876;SDS011;35771;48.978;9.294;2023-02-22T08:05:43;13.98;;;7.72;;
49876;SDS011;35771;48.978;9.294;2023-02-22T08:08:11;15.27;;;7.57;;
49876;SDS011;35771;48.978;9.294;2023-02-22T08:10:38;15.18;;;7.45;;
49876;SDS011;35771;48.978;9.294;2023-02-22T08:13:05;15.35;;;7.70;;
49876;SDS011;35771;48.978;9.294;2023-02-22T08:15:32;14.93;;;7.00;;
49876;SDS011;35771;48.978;9.294;2023-02-22T08:18:00;15.95;;;7.63;;
49876;SDS011;35771;48.978;9.294;2023-02-22T08:20:28;14.55;;;9.15;;
49876;SDS011;35771;48.978;9.294;2023-02-22T08:22:56;16.98;;;7.65;;
49876;SDS011;35771;48.978;9.294;2023-02-22T08:25:24;22.55;;;7.82;;
49876;SDS011;35771;48.978;9.294;2023-02-22T08:27:54;20.00;;;9.43;;
49876;SDS011;35771;48.978;9.294;2023-02-22T08:30:25;17.98;;;7.88;;
49876;SDS011;35771;48.978;9.294;2023-02-22T08:32:53;19.38;;;8.20;;
49876;SDS011;35771;48.978;9.294;2023-02-22T08:35:20;12.68;;;7.13;;
49876;SDS011;35771;48.978;9.294;2023-02-22T08:37:47;15.85;;;7.07;;
49876;SDS011;35771;48.978;9.294;2023-02-22T08:40:17;17.70;;;8.00;;
49876;SDS011;35771;48.978;9.294;2023-02-22T08:42:47;12.88;;;6.95;;
49876;SDS011;35771;48.978;9.294;2023-02-22T08:45:14;19.58;;;8.57;;
49876;SDS011;35771;48.978;9.294;2023-02-22T08:47:40;11.50;;;6.68;;
49876;SDS011;35771;48.978;9.294;2023-02-22T08:50:07;10.30;;;7.00;;
49876;SDS011;35771;48.978;9.294;2023-02-22T08:52:35;10.63;;;6.93;;
49876;SDS011;35771;48.978;9.294;2023-02-22T08:55:03;10.68;;;7.38;;
49876;SDS011;35771;48.978;9.294;2023-02-22T08:57:32;11.68;;;6.88;;
49876;SDS011;35771;48.978;9.294;2023-02-22T08:59:58;11.80;;;6.82;;
49876;SDS011;35771;48.978;9.294;2023-02-22T09:02:25;15.40;;;7.00;;
49876;SDS011;35771;48.978;9.294;2023-02-22T09:04:51;13.75;;;7.78;;
49876;SDS011;35771;48.978;9.294;2023-02-22T09:07:18;13.25;;;7.43;;
49876;SDS011;35771;48.978;9.294;2023-02-22T09:09:44;16.20;;;8.45;;
49876;SDS011;35771;48.978;9.294;2023-02-22T09:12:11;15.05;;;6.68;;
49876;SDS011;35771;48.978;9.294;2023-02-22T09:14:39;11.80;;;7.22;;
49876;SDS011;35771;48.978;9.294;2023-02-22T09:17:07;10.35;;;6.90;;
49876;SDS011;35771;48.978;9.294;2023-02-22T09:19:33;12.57;;;5.88;;
49876;SDS011;35771;48.978;9.294;2023-02-22T09:22:00;12.05;;;6.20;;
49876;SDS011;35771;48.978;9.294;2023-02-22T09:24:26;16.08;;;6.38;;
49876;SDS011;35771;48.978;9.294;2023-02-22T09:26:53;12.80;;;6.93;;
49876;SDS011;35771;48.978;9.294;2023-02-22T09:29:20;10.90;;;6.32;;
49876;SDS011;35771;48.978;9.294;2023-02-22T09:31:49;11.30;;;6.47;;
49876;SDS011;35771;48.978;9.294;2023-02-22T09:34:17;11.65;;;6.75;;
49876;SDS011;35771;48.978;9.294;2023-02-22T09:36:47;13.77;;;6.70;;
49876;SDS011;35771;48.978;9.294;2023-02-22T09:39:14;17.38;;;6.20;;
49876;SDS011;35771;48.978;9.294;2023-02-22T09:41:44;11.00;;;7.22;;
49876;SDS011;35771;48.978;9.294;2023-02-22T09:44:18;9.50;;;5.43;;
49876;SDS011;35771;48.978;9.294;2023-02-22T09:46:50;8.82;;;6.13;;
49876;SDS011;35771;48.978;9.294;2023-02-22T09:49:20;12.77;;;5.90;;
49876;SDS011;35771;48.978;9.294;2023-02-22T09:51:51;12.02;;;7.03;;
49876;SDS011;35771;48.978;9.294;2023-02-22T09:54:25;11.43;;;6.40;;
49876;SDS011;35771;48.978;9.294;2023-02-22T09:56:58;14.18;;;7.10;;
49876;SDS011;35771;48.978;9.294;2023-02-22T09:59:30;12.90;;;6.40;;
49876;SDS011;35771;48.978;9.294;2023-02-22T10:02:10;12.13;;;6.65;;
49876;SDS011;35771;48.978;9.294;2023-02-22T10:04:46;11.55;;;5.75;;
49876;SDS011;35771;48.978;9.294;2023-02-22T10:07:19;10.43;;;6.10;;
49876;SDS011;35771;48.978;9.294;2023-02-22T10:09:51;12.15;;;6.15;;
49876;SDS011;35771;48.978;9.294;2023-02-22T10:12:28;9.82;;;6.47;;
49876;SDS011;35771;48.978;9.294;2023-02-22T10:15:04;18.38;;;7.20;;
49876;SDS011;35771;48.978;9.294;2023-02-22T10:17:43;10.45;;;6.43;;
49876;SDS011;35771;48.978;9.294;2023-02-22T10:20:21;12.70;;;5.97;;
49876;SDS011;35771;48.978;9.294;2023-02-22T10:23:03;11.77;;;5.95;;
49876;SDS011;35771;48.978;9.294;2023-02-22T10:25:38;14.40;;;5.95;;
49876;SDS011;35771;48.978;9.294;2023-02-22T10:28:10;10.57;;;6.05;;
49876;SDS011;35771;48.978;9.294;2023-02-22T10:30:44;16.10;;;7.00;;
49876;SDS011;35771;48.978;9.294;2023-02-22T10:33:20;12.70;;;5.75;;
49876;SDS011;35771;48.978;9.294;2023-02-22T10:35:48;8.90;;;5.40;;
49876;SDS011;35771;48.978;9.294;2023-02-22T10:38:17;9.48;;;5.78;;
49876;SDS011;35771;48.978;9.294;2023-02-22T10:40:48;14.20;;;5.70;;
49876;SDS011;35771;48.978;9.294;2023-02-22T10:43:18;8.07;;;5.70;;
49876;SDS011;35771;48.978;9.294;2023-02-22T10:45:45;10.15;;;6.20;;
49876;SDS011;35771;48.978;9.294;2023-02-22T10:48:13;16.42;;;6.25;;
49876;SDS011;35771;48.978;9.294;2023-02-22T10:50:44;9.60;;;5.65;;
49876;SDS011;35771;48.978;9.294;2023-02-22T10:53:12;12.25;;;5.60;;
49876;SDS011;35771;48.978;9.294;2023-02-22T10:58:38;10.65;;;6.13;;
49876;SDS011;35771;48.978;9.294;2023-02-22T11:01:16;13.77;;;6.22;;
49876;SDS011;35771;48.978;9.294;2023-02-22T11:03:44;10.40;;;5.32;;
49876;SDS011;35771;48.978;9.294;2023-02-22T11:06:18;12.43;;;6.22;;
49876;SDS011;35771;48.978;9.294;2023-02-22T11:08:45;13.20;;;6.03;;
49876;SDS011;35771;48.978;9.294;2023-02-22T11:11:20;11.30;;;5.47;;
49876;SDS011;35771;48.978;9.294;2023-02-22T11:13:52;12.68;;;5.60;;
49876;SDS011;35771;48.978;9.294;2023-02-22T11:16:24;9.50;;;5.90;;
49876;SDS011;35771;48.978;9.294;2023-02-22T11:18:58;14.73;;;5.65;;
49876;SDS011;35771;48.978;9.294;2023-02-22T11:21:27;9.43;;;5.95;;
49876;SDS011;35771;48.978;9.294;2023-02-22T11:24:00;13.05;;;5.00;;
49876;SDS011;35771;48.978;9.294;2023-02-22T11:26:28;15.63;;;5.30;;
49876;SDS011;35771;48.978;9.294;2023-02-22T11:29:10;10.05;;;5.68;;
49876;SDS011;35771;48.978;9.294;2023-02-22T11:31:43;10.82;;;5.43;;
49876;SDS011;35771;48.978;9.294;2023-02-22T11:34:27;10.13;;;5.97;;
49876;SDS011;35771;48.978;9.294;2023-02-22T11:36:57;14.07;;;6.45;;
49876;SDS011;35771;48.978;9.294;2023-02-22T11:39:41;12.13;;;5.55;;
49876;SDS011;35771;48.978;9.294;2023-02-22T11:42:21;10.18;;;5.57;;
49876;SDS011;35771;48.978;9.294;2023-02-22T11:45:06;9.40;;;6.47;;
49876;SDS011;35771;48.978;9.294;2023-02-22T11:47:35;15.50;;;5.50;;
49876;SDS011;35771;48.978;9.294;2023-02-22T11:50:16;13.48;;;6.40;;
49876;SDS011;35771;48.978;9.294;2023-02-22T11:52:48;10.50;;;5.63;;
49876;SDS011;35771;48.978;9.294;2023-02-22T11:55:23;12.18;;;6.07;;
49876;SDS011;35771;48.978;9.294;2023-02-22T11:57:59;11.07;;;6.20;;
49876;SDS011;35771;48.978;9.294;2023-02-22T12:00:34;13.15;;;6.45;;
49876;SDS011;35771;48.978;9.294;2023-02-22T12:06:10;10.15;;;5.65;;
49876;SDS011;35771;48.978;9.294;2023-02-22T12:08:54;12.32;;;6.38;;
49876;SDS011;35771;48.978;9.294;2023-02-22T12:11:30;14.43;;;6.05;;
49876;SDS011;35771;48.978;9.294;2023-02-22T12:14:06;15.57;;;6.15;;
49876;SDS011;35771;48.978;9.294;2023-02-22T12:19:18;18.35;;;7.03;;
49876;SDS011;35771;48.978;9.294;2023-02-22T12:21:54;13.45;;;6.65;;
49876;SDS011;35771;48.978;9.294;2023-02-22T12:24:29;13.88;;;5.85;;
49876;SDS011;35771;48.978;9.294;2023-02-22T12:27:00;11.57;;;6.30;;
49876;SDS011;35771;48.978;9.294;2023-02-22T12:29:35;10.57;;;6.30;;
49876;SDS011;35771;48.978;9.294;2023-02-22T12:32:07;9.88;;;6.25;;
49876;SDS011;35771;48.978;9.294;2023-02-22T12:34:39;10.32;;;6.28;;
49876;SDS011;35771;48.978;9.294;2023-02-22T12:37:12;11.98;;;6.35;;
49876;SDS011;35771;48.978;9.294;2023-02-22T12:39:48;13.35;;;6.95;;
49876;SDS011;35771;48.978;9.294;2023-02-22T12:42:21;11.82;;;6.40;;
49876;SDS011;35771;48.978;9.294;2023-02-22T12:44:57;17.15;;;6.20;;
49876;SDS011;35771;48.978;9.294;2023-02-22T12:47:29;18.40;;;7.20;;
49876;SDS011;35771;48.978;9.294;2023-02-22T12:50:02;10.48;;;7.03;;
49876;SDS011;35771;48.978;9.294;2023-02-22T12:52:39;12.13;;;7.45;;
49876;SDS011;35771;48.978;9.294;2023-02-22T12:55:13;11.77;;;6.97;;
49876;SDS011;35771;48.978;9.294;2023-02-22T12:57:46;13.13;;;7.43;;
49876;SDS011;35771;48.978;9.294;2023-02-22T13:00:19;15.93;;;7.45;;
49876;SDS011;35771;48.978;9.294;2023-02-22T13:02:53;17.50;;;7.30;;
49876;SDS011;35771;48.978;9.294;2023-02-22T13:05:25;12.82;;;7.07;;
49876;SDS011;35771;48.978;9.294;2023-02-22T13:08:00;14.13;;;7.70;;
49876;SDS011;35771;48.978;9.294;2023-02-22T13:10:44;17.17;;;7.40;;
49876;SDS011;35771;48.978;9.294;2023-02-22T13:13:35;15.07;;;7.65;;
49876;SDS011;35771;48.978;9.294;2023-02-22T13:16:13;13.90;;;7.05;;
49876;SDS011;35771;48.978;9.294;2023-02-22T13:18:56;15.65;;;7.43;;
49876;SDS011;35771;48.978;9.294;2023-02-22T13:21:30;16.65;;;8.23;;
49876;SDS011;35771;48.978;9.294;2023-02-22T13:24:08;13.05;;;6.70;;
49876;SDS011;35771;48.978;9.294;2023-02-22T13:26:45;19.15;;;7.65;;
49876;SDS011;35771;48.978;9.294;2023-02-22T13:29:16;11.45;;;7.15;;
49876;SDS011;35771;48.978;9.294;2023-02-22T13:31:58;13.80;;;7.32;;
49876;SDS011;35771;48.978;9.294;2023-02-22T13:34:40;11.98;;;6.93;;
49876;SDS011;35771;48.978;9.294;2023-02-22T13:43:26;14.75;;;7.53;;
49876;SDS011;35771;48.978;9.294;2023-02-22T13:49:24;10.93;;;4.70;;
49876;SDS011;35771;48.978;9.294;2023-02-22T13:52:01;14.25;;;6.72;;
49876;SDS011;35771;48.978;9.294;2023-02-22T13:54:35;15.13;;;7.05;;
49876;SDS011;35771;48.978;9.294;2023-02-22T13:57:15;18.27;;;7.55;;
49876;SDS011;35771;48.978;9.294;2023-02-22T13:59:48;12.02;;;7.18;;
49876;SDS011;35771;48.978;9.294;2023-02-22T14:03:02;16.75;;;7.57;;
49876;SDS011;35771;48.978;9.294;2023-02-22T14:05:35;12.32;;;7.82;;
49876;SDS011;35771;48.978;9.294;2023-02-22T14:14:20;14.27;;;6.67;;
49876;SDS011;35771;48.978;9.294;2023-02-22T14:22:54;12.35;;;7.20;;
49876;SDS011;35771;48.978;9.294;2023-02-22T14:25:33;16.33;;;7.57;;
49876;SDS011;35771;48.978;9.294;2023-02-22T14:28:02;21.83;;;8.27;;
49876;SDS011;35771;48.978;9.294;2023-02-22T14:30:31;16.47;;;7.47;;
49876;SDS011;35771;48.978;9.294;2023-02-22T14:33:00;12.70;;;7.53;;
49876;SDS011;35771;48.978;9.294;2023-02-22T14:35:34;67.07;;;34.33;;
49876;SDS011;35771;48.978;9.294;2023-02-22T14:38:04;36.83;;;18.17;;
49876;SDS011;35771;48.978;9.294;2023-02-22T14:40:42;46.55;;;27.67;;
49876;SDS011;35771;48.978;9.294;2023-02-22T14:43:14;35.95;;;16.50;;
